Time;durP1;ratioP1;P1;durP2;ratioP2;P2;SDS_P1;SDS_P2;PMS_P1;PMS_P2;Temp;Humidity;BMP_temperature;BMP_pressure;BME280_temperature;BME280_humidity;BME280_pressure;Samples;Min_cycle;Max_cycle;Signal;HPM_P1;HPM_P2
2022/08/13 00:01:25;;;;;;;8.65;2.75;;;;;;;21.47;47.78;101274.84;5082149;28;20059;-59
2022/08/13 00:04:00;;;;;;;7.53;2.30;;;;;;;21.43;47.53;101278.84;5089427;28;20127;-54
2022/08/13 00:09:04;;;;;;;7.45;2.42;;;;;;;21.36;48.08;101271.53;5065218;28;20588;-57
2022/08/13 00:14:33;;;;;;;10.27;3.08;;;;;;;21.35;47.65;101272.53;5072297;28;20059;-57
2022/08/13 00:17:07;;;;;;;7.20;2.30;;;;;;;21.36;48.40;101277.72;5059439;28;20049;-58
2022/08/13 00:19:38;;;;;;;14.45;2.60;;;;;;;21.36;48.42;101271.53;5076414;28;20142;-58
2022/08/13 00:22:08;;;;;;;7.30;2.85;;;;;;;21.36;48.69;101271.53;5062019;28;20485;-58
2022/08/13 00:24:57;;;;;;;10.88;2.50;;;;;;;21.33;48.95;101264.59;5075621;28;20048;-57
2022/08/13 00:27:26;;;;;;;4.95;2.58;;;;;;;21.34;48.95;101270.81;5070278;28;20504;-58
2022/08/13 00:29:54;;;;;;;3.10;2.30;;;;;;;21.32;48.84;101262.09;5071254;28;20139;-57
2022/08/13 00:32:29;;;;;;;2.90;1.85;;;;;;;21.29;49.14;101256.97;5067104;28;20056;-57
2022/08/13 00:34:59;;;;;;;;;;;;;;;21.26;48.91;101257.28;5070547;28;20048;-59
2022/08/13 00:37:28;;;;;;;6.30;2.17;;;;;;;21.21;48.97;101252.38;5072526;28;19925;-57
2022/08/13 00:40:00;;;;;;;11.55;3.35;;;;;;;21.17;49.25;101253.63;5063050;28;20074;-59
2022/08/13 00:42:47;;;;;;;5.20;3.25;;;;;;;21.14;49.44;101251.22;5071826;28;20056;-57
2022/08/13 00:45:17;;;;;;;8.20;2.42;;;;;;;21.12;49.40;101247.84;5075121;28;20040;-59
2022/08/13 00:50:35;;;;;;;6.15;2.40;;;;;;;21.06;49.73;101251.94;5057867;28;20503;-59
2022/08/13 00:53:04;;;;;;;7.15;2.15;;;;;;;21.05;49.61;101242.22;5066562;28;20386;-59
2022/08/13 00:55:31;;;;;;;6.57;2.60;;;;;;;21.04;49.57;101240.53;5061724;28;20131;-57
2022/08/13 00:57:59;;;;;;;4.68;2.35;;;;;;;21.02;50.17;101241.66;5065272;28;20056;-60
2022/08/13 01:00:28;;;;;;;5.90;2.38;;;;;;;20.99;50.25;101248.16;5072185;28;20055;-58
2022/08/13 01:02:56;;;;;;;7.15;2.83;;;;;;;20.95;50.30;101238.72;5070489;28;20059;-58
2022/08/13 01:05:44;;;;;;;7.40;2.50;;;;;;;20.91;50.49;101240.84;5069704;28;20423;-58
2022/08/13 01:08:16;;;;;;;4.20;2.65;;;;;;;20.87;50.53;101239.44;5066738;28;20051;-57
2022/08/13 01:10:48;;;;;;;5.95;2.45;;;;;;;20.84;51.01;101239.72;5072361;28;20044;-59
2022/08/13 01:13:25;;;;;;;10.27;2.63;;;;;;;20.83;50.65;101232.66;5068932;28;20132;-58
2022/08/13 01:15:59;;;;;;;7.13;2.42;;;;;;;20.81;51.09;101228.47;5060950;28;20053;-57
2022/08/13 01:18:28;;;;;;;5.65;2.60;;;;;;;20.78;51.04;101234.09;5054890;28;20059;-56
2022/08/13 01:21:03;;;;;;;3.58;2.40;;;;;;;20.76;50.98;101233.38;5076327;28;20041;-57
2022/08/13 01:23:37;;;;;;;9.38;2.33;;;;;;;20.73;50.77;101227.34;5066919;28;20148;-57
2022/08/13 01:26:10;;;;;;;6.15;2.28;;;;;;;20.74;50.71;101228.16;5062012;28;20057;-55
2022/08/13 01:28:41;;;;;;;3.72;2.17;;;;;;;20.72;51.30;101231.00;5069941;28;20519;-57
2022/08/13 01:31:11;;;;;;;6.78;2.88;;;;;;;20.70;51.55;101232.97;5070196;28;20044;-58
2022/08/13 01:33:49;;;;;;;9.25;2.78;;;;;;;20.67;51.38;101230.59;5065582;28;20056;-57
2022/08/13 01:36:20;;;;;;;6.60;2.83;;;;;;;20.67;51.27;101227.91;5065376;28;20436;-55
2022/08/13 01:39:07;;;;;;;6.88;2.90;;;;;;;20.67;51.20;101225.22;5068724;28;20041;-56
2022/08/13 01:41:46;;;;;;;9.77;2.83;;;;;;;20.65;51.44;101224.50;5068611;28;20048;-58
2022/08/13 01:44:25;;;;;;;4.97;2.67;;;;;;;20.62;51.75;101222.09;5073675;28;20551;-56
2022/08/13 01:53:08;;;;;;;8.63;2.50;;;;;;;20.54;51.91;101221.16;5070378;28;20052;-58
2022/08/13 01:55:44;;;;;;;4.70;2.75;;;;;;;20.52;52.06;101218.59;5065058;28;20052;-57
2022/08/13 01:58:34;;;;;;;5.88;2.78;;;;;;;20.47;52.09;101213.66;5062110;28;20057;-58
2022/08/13 02:01:25;;;;;;;7.05;2.63;;;;;;;20.45;52.22;101218.28;5068232;28;20501;-55
2022/08/13 02:04:11;;;;;;;8.27;2.17;;;;;;;20.44;52.32;101215.75;5067761;28;20218;-57
2022/08/13 02:06:39;;;;;;;10.88;3.00;;;;;;;20.39;52.59;101218.00;5061324;28;20052;-56
2022/08/13 02:09:09;;;;;;;20.20;3.58;;;;;;;20.35;52.71;101216.56;5072959;28;20057;-56
2022/08/13 02:11:56;;;;;;;7.13;2.63;;;;;;;20.34;52.95;101228.25;5065211;28;20111;-60
2022/08/13 02:14:27;;;;;;;5.80;2.45;;;;;;;20.33;52.93;101223.91;5066750;28;20040;-60
2022/08/13 02:16:56;;;;;;;7.18;3.40;;;;;;;20.34;53.77;101222.91;5065259;28;20187;-58
2022/08/13 02:19:25;;;;;;;11.88;2.47;;;;;;;20.31;53.13;101224.06;5075716;28;20500;-58
2022/08/13 02:21:58;;;;;;;6.13;2.40;;;;;;;20.28;53.16;101218.97;5069249;28;20060;-58
2022/08/13 02:24:35;;;;;;;4.20;2.40;;;;;;;20.27;52.99;101219.97;5063780;28;20049;-57
2022/08/13 02:27:04;;;;;;;7.07;3.03;;;;;;;20.28;53.22;101223.47;5069748;28;20118;-58
2022/08/13 02:29:31;;;;;;;4.45;2.60;;;;;;;20.29;53.17;101222.50;5074527;28;20560;-55
2022/08/13 02:32:02;;;;;;;14.70;2.47;;;;;;;20.28;53.39;101228.84;5069323;28;20033;-58
2022/08/13 02:34:49;;;;;;;6.65;2.53;;;;;;;20.27;53.07;101227.16;5071657;28;20079;-56
2022/08/13 02:37:23;;;;;;;5.68;2.83;;;;;;;20.27;53.18;101221.81;5075385;28;20055;-57
2022/08/13 02:42:58;;;;;;;3.90;2.40;;;;;;;20.27;52.97;101221.81;5072275;28;20051;-58
2022/08/13 02:45:26;;;;;;;8.65;3.03;;;;;;;20.26;53.63;101217.41;5074962;28;20054;-59
2022/08/13 02:47:54;;;;;;;3.33;2.38;;;;;;;20.24;53.46;101215.72;5052762;28;20080;-58
2022/08/13 02:50:26;;;;;;;5.22;2.70;;;;;;;20.24;53.29;101221.06;5069436;28;20049;-57
2022/08/13 02:53:10;;;;;;;7.22;3.30;;;;;;;20.23;53.82;101221.22;5071770;28;20065;-59
2022/08/13 02:55:57;;;;;;;7.95;2.90;;;;;;;20.18;53.83;101215.44;5072636;28;20089;-59
2022/08/13 02:58:26;;;;;;;5.32;2.58;;;;;;;20.17;53.81;101213.75;5070599;28;20064;-57
2022/08/13 03:00:53;;;;;;;6.55;2.95;;;;;;;20.15;54.03;101211.22;5066416;28;20048;-58
2022/08/13 03:03:26;;;;;;;7.03;2.53;;;;;;;20.14;54.03;101211.38;5061806;28;20054;-58
2022/08/13 03:05:54;;;;;;;6.75;2.90;;;;;;;20.14;54.01;101214.88;5077235;28;20052;-59
2022/08/13 03:08:27;;;;;;;4.00;2.88;;;;;;;20.13;54.18;101210.53;5068980;28;20595;-59
2022/08/13 03:11:09;;;;;;;8.30;3.15;;;;;;;20.12;54.03;101213.31;5068956;28;20152;-59
2022/08/13 03:13:38;;;;;;;9.45;2.95;;;;;;;20.12;54.23;101213.31;5073931;28;20139;-59
2022/08/13 03:16:14;;;;;;;6.82;2.67;;;;;;;20.09;54.27;101209.09;5052292;28;20048;-58
2022/08/13 03:18:44;;;;;;;6.80;2.88;;;;;;;20.08;54.62;101217.25;5073465;28;20851;-59
2022/08/13 03:21:25;;;;;;;6.88;2.63;;;;;;;20.04;54.75;101208.66;5069267;28;20053;-59
2022/08/13 03:24:15;;;;;;;10.18;3.17;;;;;;;20.04;54.89;101208.66;5070509;28;20056;-58
2022/08/13 03:26:47;;;;;;;3.75;2.58;;;;;;;20.02;55.05;101215.97;5064858;28;20057;-58
2022/08/13 03:29:21;;;;;;;7.88;3.10;;;;;;;20.01;54.76;101218.78;5074652;28;20143;-59
2022/08/13 03:32:08;;;;;;;6.18;3.03;;;;;;;19.98;55.28;101209.19;5059751;28;20048;-58
2022/08/13 03:34:39;;;;;;;5.85;2.63;;;;;;;19.97;55.18;101204.84;5073430;28;20134;-57
2022/08/13 03:37:10;;;;;;;7.65;2.78;;;;;;;19.97;55.28;101195.00;5068967;28;20051;-59
2022/08/13 03:39:37;;;;;;;7.05;2.75;;;;;;;19.98;55.25;101198.50;5070364;28;20049;-59
2022/08/13 03:42:10;;;;;;;8.25;2.75;;;;;;;19.99;55.33;101194.84;5063385;28;20033;-59
2022/08/13 03:44:45;;;;;;;5.32;2.95;;;;;;;19.99;55.38;101197.53;5043378;22;20569;-59
2022/08/13 03:47:13;;;;;;;6.32;2.42;;;;;;;19.99;55.25;101194.84;5027113;28;20056;-58
2022/08/13 03:50:04;;;;;;;9.90;2.90;;;;;;;20.00;55.25;101190.38;5013270;28;20065;-57
2022/08/13 03:52:33;;;;;;;11.75;3.88;;;;;;;20.00;55.20;101193.06;5029340;28;20045;-58
2022/08/13 03:55:09;;;;;;;6.32;3.28;;;;;;;20.00;55.01;101188.53;5020143;28;20375;-58
2022/08/13 03:57:39;;;;;;;6.05;3.20;;;;;;;20.01;55.19;101184.88;5030505;28;20515;-59
2022/08/13 04:00:28;;;;;;;9.25;3.08;;;;;;;20.02;54.98;101185.72;5023687;28;20057;-55
2022/08/13 04:02:56;;;;;;;6.90;2.80;;;;;;;20.02;55.05;101181.22;5024915;28;20104;-56
2022/08/13 04:05:25;;;;;;;5.18;2.80;;;;;;;20.05;55.30;101182.78;5027979;28;20041;-57
2022/08/13 04:08:13;;;;;;;5.47;3.25;;;;;;;20.06;55.61;101182.63;5023673;28;20056;-56
2022/08/13 04:10:42;;;;;;;9.60;2.90;;;;;;;20.07;55.60;101187.00;5021237;28;20065;-55
2022/08/13 04:13:19;;;;;;;5.60;2.80;;;;;;;20.07;55.90;101176.31;5030136;28;20069;-57
2022/08/13 04:16:07;;;;;;;6.93;3.50;;;;;;;20.08;55.86;101185.16;5020697;28;20056;-57
2022/08/13 04:18:36;;;;;;;8.63;2.60;;;;;;;20.07;55.50;101178.97;5026481;28;21607;-55
2022/08/13 04:21:06;;;;;;;8.85;3.38;;;;;;;20.10;55.50;101185.88;5004245;28;20049;-56
2022/08/13 04:23:36;;;;;;;6.38;2.60;;;;;;;20.13;55.69;101188.28;5025332;28;20061;-54
2022/08/13 04:26:06;;;;;;;7.15;3.30;;;;;;;20.14;55.62;101188.16;5022468;28;20049;-58
2022/08/13 04:28:33;;;;;;;7.78;3.30;;;;;;;20.17;55.66;101189.69;5023579;28;20058;-56
2022/08/13 04:31:00;;;;;;;7.68;3.53;;;;;;;20.19;55.55;101185.91;5028086;28;20053;-56
2022/08/13 04:33:32;;;;;;;9.10;3.47;;;;;;;20.22;55.52;101193.66;5012071;28;20049;-56
2022/08/13 04:36:19;;;;;;;8.00;2.88;;;;;;;20.22;55.46;101196.31;5022549;28;20060;-54
2022/08/13 04:38:54;;;;;;;6.75;3.20;;;;;;;20.24;55.63;101191.66;5028077;28;20058;-58
2022/08/13 04:41:21;;;;;;;7.22;3.35;;;;;;;20.26;55.61;101196.03;5021172;28;20143;-53
2022/08/13 04:43:48;;;;;;;8.52;3.30;;;;;;;20.27;55.49;101197.72;5030305;28;20061;-58
2022/08/13 04:46:27;;;;;;;9.27;3.53;;;;;;;20.30;55.59;101189.41;5028989;28;20077;-55
2022/08/13 04:48:55;;;;;;;6.03;3.22;;;;;;;20.31;55.63;101189.28;5024165;28;20053;-58
2022/08/13 04:51:25;;;;;;;7.20;3.35;;;;;;;20.33;55.71;101186.47;5027414;28;20075;-58
2022/08/13 04:53:59;;;;;;;8.80;3.20;;;;;;;20.36;55.79;101187.03;5029582;28;20057;-56
2022/08/13 04:56:27;;;;;;;9.98;3.55;;;;;;;20.37;55.83;101187.88;5027688;28;20220;-57
2022/08/13 04:58:55;;;;;;;11.70;3.70;;;;;;;20.41;55.61;101189.28;5027664;28;20516;-53
2022/08/13 05:01:22;;;;;;;6.50;3.50;;;;;;;20.43;56.02;101184.63;5015564;28;20056;-54
2022/08/13 05:04:09;;;;;;;9.27;3.83;;;;;;;20.48;56.05;101180.56;5021000;28;20064;-58
2022/08/13 05:06:49;;;;;;;9.20;3.85;;;;;;;20.55;55.91;101183.56;5025278;28;20060;-57
2022/08/13 05:09:19;;;;;;;13.02;4.28;;;;;;;20.63;55.95;101182.84;5029577;28;20124;-59
2022/08/13 05:11:58;;;;;;;8.82;3.40;;;;;;;20.70;55.59;101174.09;5029216;28;20053;-55
2022/08/13 05:14:30;;;;;;;7.75;3.33;;;;;;;20.79;55.45;101177.75;5029475;28;20057;-56
2022/08/13 05:17:04;;;;;;;9.07;4.13;;;;;;;20.87;55.50;101177.03;5027364;28;20061;-57
2022/08/13 05:19:32;;;;;;;8.68;3.50;;;;;;;20.94;55.08;101178.16;5029430;28;20072;-56
2022/08/13 05:22:08;;;;;;;8.00;3.40;;;;;;;20.99;54.77;101178.56;5010428;28;20029;-60
2022/08/13 05:24:56;;;;;;;6.03;3.30;;;;;;;21.06;54.74;101179.66;5027227;28;20053;-57
2022/08/13 05:27:44;;;;;;;8.25;2.90;;;;;;;21.14;55.07;101177.09;5028682;28;20058;-56
2022/08/13 05:30:14;;;;;;;7.68;3.20;;;;;;;21.21;54.87;101180.06;5027375;28;20148;-57
2022/08/13 05:32:58;;;;;;;6.45;2.97;;;;;;;21.29;55.14;101177.47;5024087;28;20061;-57
2022/08/13 05:35:27;;;;;;;8.55;3.85;;;;;;;21.37;54.88;101169.59;5027053;28;20394;-56
2022/08/13 05:38:16;;;;;;;4.13;3.10;;;;;;;21.47;54.65;101178.41;5022175;28;20049;-57
2022/08/13 05:40:49;;;;;;;8.40;3.53;;;;;;;21.62;54.78;101173.44;5027046;28;20488;-54
2022/08/13 05:43:25;;;;;;;7.32;3.55;;;;;;;21.79;54.15;101177.13;5023032;28;20054;-58
2022/08/13 05:45:58;;;;;;;12.07;3.60;;;;;;;21.93;53.49;101175.78;5027321;28;20045;-57
2022/08/13 05:48:38;;;;;;;8.25;3.03;;;;;;;22.06;53.21;101176.25;5028854;28;20423;-55
2022/08/13 05:51:08;;;;;;;5.15;3.42;;;;;;;22.19;53.21;101176.75;5022394;28;20528;-58
2022/08/13 05:53:37;;;;;;;12.00;3.47;;;;;;;22.36;52.98;101174.25;5028844;28;20053;-58
2022/08/13 05:56:29;;;;;;;18.33;3.45;;;;;;;22.51;52.80;101172.69;5032429;28;20056;-58
2022/08/13 05:58:56;;;;;;;6.45;2.88;;;;;;;22.57;52.08;101169.41;5024910;28;20053;-59
2022/08/13 06:04:24;;;;;;;4.95;3.20;;;;;;;22.82;51.60;101169.59;4979983;28;20060;-58
2022/08/13 06:07:13;;;;;;;5.75;3.30;;;;;;;22.95;51.12;101170.88;5025807;28;20099;-56
2022/08/13 06:09:40;;;;;;;6.78;3.20;;;;;;;23.06;51.00;101172.50;5028410;28;20382;-56
2022/08/13 06:12:08;;;;;;;7.97;3.47;;;;;;;23.17;50.63;101182.09;5032492;28;20452;-58
2022/08/13 06:14:56;;;;;;;6.78;3.13;;;;;;;23.29;50.21;101170.09;5030463;28;20069;-53
2022/08/13 06:17:25;;;;;;;7.47;3.67;;;;;;;23.41;50.25;101167.97;5030097;28;20052;-59
2022/08/13 06:19:59;;;;;;;7.63;3.60;;;;;;;23.51;50.02;101176.75;5021603;28;20053;-55
2022/08/13 06:22:28;;;;;;;6.43;3.65;;;;;;;23.60;49.90;101172.25;5023277;28;20064;-56
2022/08/13 06:24:55;;;;;;;9.27;3.42;;;;;;;23.68;49.89;101175.81;5030007;28;20049;-55
2022/08/13 06:27:25;;;;;;;5.75;3.95;;;;;;;23.76;49.84;101166.97;5024321;28;20045;-59
2022/08/13 06:30:18;;;;;;;5.20;3.30;;;;;;;23.87;49.69;101174.75;5025196;28;20573;-59
2022/08/13 06:33:01;;;;;;;19.17;4.32;;;;;;;23.93;49.30;101174.06;5017232;28;20132;-55
2022/08/13 06:35:53;;;;;;;4.60;2.97;;;;;;;24.02;49.02;101176.78;5025080;28;20060;-56
2022/08/13 06:38:29;;;;;;;;;;;;;;;24.10;49.14;101183.03;5032811;28;20348;-56
2022/08/13 06:41:01;;;;;;;5.68;3.25;;;;;;;24.20;48.97;101183.72;5030171;28;19933;-57
2022/08/13 06:43:33;;;;;;;5.22;3.15;;;;;;;24.30;48.53;101185.41;5027799;28;20050;-56
2022/08/13 06:46:22;;;;;;;5.55;3.45;;;;;;;24.44;48.02;101182.94;5024435;28;20041;-57
2022/08/13 06:48:57;;;;;;;9.70;4.40;;;;;;;24.55;47.71;101187.16;5022221;28;20548;-57
2022/08/13 06:51:25;;;;;;;9.63;3.72;;;;;;;24.61;47.73;101186.47;5029202;28;20056;-58
2022/08/13 06:53:54;;;;;;;7.13;3.67;;;;;;;24.66;47.45;101188.66;5013952;28;20042;-58
2022/08/13 06:56:41;;;;;;;5.57;3.58;;;;;;;24.76;47.35;101186.63;5029530;28;20060;-57
2022/08/13 06:59:26;;;;;;;10.05;3.53;;;;;;;24.82;47.22;101194.03;5032042;28;20048;-59
2022/08/13 07:02:15;;;;;;;6.72;3.53;;;;;;;24.93;46.94;101188.28;5009617;28;20072;-56
2022/08/13 07:04:58;;;;;;;4.95;3.17;;;;;;;25.08;46.89;101191.19;5013367;28;20132;-56
2022/08/13 07:07:25;;;;;;;7.63;3.53;;;;;;;25.20;46.52;101186.25;5031737;28;20401;-54
2022/08/13 07:09:53;;;;;;;5.43;3.17;;;;;;;25.32;46.04;101194.84;5025975;28;20139;-56
2022/08/13 07:12:20;;;;;;;8.43;3.80;;;;;;;25.40;46.20;101190.25;5014460;28;20049;-55
2022/08/13 07:14:51;;;;;;;7.90;3.28;;;;;;;25.52;46.33;101191.53;5026966;28;20057;-58
2022/08/13 07:17:28;;;;;;;27.50;4.07;;;;;;;25.59;45.88;101191.69;5031031;28;20060;-57
2022/08/13 07:20:04;;;;;;;6.18;3.33;;;;;;;25.70;45.50;101191.31;5028468;28;20053;-59
2022/08/13 07:22:49;;;;;;;4.35;3.30;;;;;;;25.71;45.79;101194.84;5016457;28;20049;-57
2022/08/13 07:25:37;;;;;;;5.68;4.07;;;;;;;25.78;45.63;101189.63;5022556;28;20060;-56
2022/08/13 07:28:26;;;;;;;5.95;3.35;;;;;;;25.87;45.34;101186.72;5011132;28;20048;-56
2022/08/13 07:31:15;;;;;;;8.98;3.70;;;;;;;26.02;45.32;101192.19;5029137;28;20057;-54
2022/08/13 07:33:51;;;;;;;7.13;3.80;;;;;;;26.17;44.72;101189.59;5030544;28;20050;-54
2022/08/13 07:36:29;;;;;;;16.65;4.60;;;;;;;26.25;44.70;101190.38;5021613;28;20120;-56
2022/08/13 07:38:57;;;;;;;8.63;3.97;;;;;;;26.38;44.25;101183.50;5030928;28;20067;-57
2022/08/13 07:41:27;;;;;;;7.00;3.00;;;;;;;26.44;44.44;101185.53;5026588;28;20540;-55
2022/08/13 07:43:59;;;;;;;9.52;4.22;;;;;;;26.51;44.16;101184.63;5013178;28;20405;-56
2022/08/13 07:46:42;;;;;;;6.43;2.95;;;;;;;26.57;43.63;101193.88;5027470;28;20059;-58
2022/08/13 07:49:23;;;;;;;4.72;3.25;;;;;;;26.66;43.51;101192.78;5024144;28;20340;-57
2022/08/13 07:52:09;;;;;;;7.35;4.03;;;;;;;26.73;43.36;101191.00;5008543;28;20133;-58
2022/08/13 07:54:40;;;;;;;6.85;3.38;;;;;;;26.77;43.61;101183.41;5030042;28;20124;-58
2022/08/13 07:57:08;;;;;;;9.10;2.92;;;;;;;26.76;43.52;101187.97;5022793;28;20056;-58
2022/08/13 07:59:36;;;;;;;9.27;3.17;;;;;;;26.75;43.27;101189.00;5027555;28;20416;-59
2022/08/13 08:02:28;;;;;;;8.15;3.08;;;;;;;26.73;43.51;101182.91;5030664;28;20064;-55
2022/08/13 08:04:57;;;;;;;5.43;3.28;;;;;;;26.74;43.43;101179.19;5028439;28;20053;-57
2022/08/13 08:07:27;;;;;;;4.85;3.30;;;;;;;26.70;43.72;101194.09;5019654;28;20057;-53
2022/08/13 08:10:14;;;;;;;3.53;2.80;;;;;;;26.76;43.45;101187.13;5028636;28;20096;-57
2022/08/13 08:12:44;;;;;;;7.38;2.67;;;;;;;26.80;43.51;101185.75;5030300;28;20057;-55
2022/08/13 08:15:23;;;;;;;4.80;3.50;;;;;;;26.85;43.26;101187.88;5023421;28;20053;-57
2022/08/13 08:18:11;;;;;;;10.75;3.47;;;;;;;26.81;43.65;101190.13;5024824;28;20061;-56
2022/08/13 08:20:42;;;;;;;4.40;3.42;;;;;;;26.83;43.35;101187.22;5027799;28;20060;-55
2022/08/13 08:23:29;;;;;;;7.53;3.22;;;;;;;26.77;43.34;101188.78;5025698;28;20064;-56
2022/08/13 08:26:17;;;;;;;13.43;3.45;;;;;;;26.71;43.69;101197.63;5021827;28;20045;-58
2022/08/13 08:28:46;;;;;;;9.80;3.53;;;;;;;26.63;44.09;101187.75;5028978;28;20107;-59
2022/08/13 08:31:17;;;;;;;5.93;3.50;;;;;;;26.64;43.98;101193.97;5028262;28;20053;-54
2022/08/13 08:34:07;;;;;;;9.63;3.10;;;;;;;26.65;44.08;101192.94;5029033;28;20430;-56
2022/08/13 08:36:41;;;;;;;9.85;3.38;;;;;;;26.69;44.03;101187.00;5027455;28;20137;-58
2022/08/13 08:45:00;;;;;;;8.77;3.67;;;;;;;27.20;43.45;101189.94;5014152;28;20521;-58
2022/08/13 08:47:32;;;;;;;4.05;3.53;;;;;;;27.24;43.42;101196.66;5029721;28;20050;-55
2022/08/13 08:50:16;;;;;;;7.68;3.80;;;;;;;27.33;42.92;101183.84;5017903;28;20399;-55
2022/08/13 08:56:04;;;;;;;4.88;3.33;;;;;;;27.44;42.94;101183.38;5027394;28;20076;-56
2022/08/13 08:58:41;;;;;;;6.75;4.32;;;;;;;27.48;42.83;101179.28;5027313;28;20057;-52
2022/08/13 09:01:12;;;;;;;8.65;3.63;;;;;;;27.65;42.26;101171.81;5026497;28;20064;-57
2022/08/13 09:03:46;;;;;;;5.45;4.10;;;;;;;27.84;42.27;101181.22;5028958;28;20065;-55
2022/08/13 09:06:28;;;;;;;5.38;3.30;;;;;;;28.15;41.84;101169.28;5021835;28;20053;-55
2022/08/13 09:09:16;;;;;;;7.45;3.72;;;;;;;28.43;41.25;101163.97;5025595;28;20057;-58
2022/08/13 09:11:49;;;;;;;6.65;3.78;;;;;;;28.61;41.26;101169.75;5030920;28;20314;-59
2022/08/13 09:14:30;;;;;;;6.70;3.72;;;;;;;28.80;40.79;101175.53;5025411;28;20075;-58
2022/08/13 09:17:02;;;;;;;15.02;5.72;;;;;;;28.90;40.93;101167.88;5025424;28;20063;-59
2022/08/13 09:19:30;;;;;;;6.40;4.10;;;;;;;29.01;40.51;101168.22;5031097;28;20117;-58
2022/08/13 09:22:17;;;;;;;4.88;4.38;;;;;;;29.06;40.28;101173.03;5029726;28;20054;-57
2022/08/13 09:24:56;;;;;;;7.30;4.43;;;;;;;29.25;40.11;101174.19;5023487;28;20052;-58
2022/08/13 09:27:28;;;;;;;6.80;3.72;;;;;;;29.50;39.94;101174.53;5029842;28;20060;-57
2022/08/13 09:30:16;;;;;;;5.13;4.63;;;;;;;29.60;39.57;101175.03;5027632;28;20045;-55
2022/08/13 09:32:56;;;;;;;6.22;4.47;;;;;;;29.68;39.45;101172.16;5033385;28;20064;-57
2022/08/13 09:35:25;;;;;;;7.57;4.32;;;;;;;29.86;39.53;101178.91;5013504;28;20046;-57
2022/08/13 09:38:06;;;;;;;6.78;4.45;;;;;;;29.94;39.44;101168.66;5016709;28;20210;-57
2022/08/13 09:40:42;;;;;;;7.57;4.72;;;;;;;29.98;39.49;101169.09;5027378;28;20073;-58
2022/08/13 09:43:29;;;;;;;5.20;4.20;;;;;;;30.01;39.24;101179.56;5039825;22;20041;-75
2022/08/13 09:46:17;;;;;;;5.95;4.78;;;;;;;29.97;38.73;101170.16;5031453;28;20049;-76
2022/08/13 09:48:50;;;;;;;5.53;4.63;;;;;;;29.72;38.75;101173.41;5003954;28;20057;-73
2022/08/13 09:51:21;;;;;;;9.90;4.75;;;;;;;29.39;39.08;101166.97;4978355;28;20056;-74
2022/08/13 09:54:09;;;;;;;8.10;4.22;;;;;;;29.20;39.55;101166.66;5017713;28;20496;-74
2022/08/13 09:56:38;;;;;;;6.47;4.03;;;;;;;29.09;39.62;101167.22;5002194;28;20100;-73
2022/08/13 09:59:10;;;;;;;10.05;4.03;;;;;;;29.10;40.07;101160.75;4999306;28;20038;-73
2022/08/13 10:01:42;;;;;;;8.50;4.20;;;;;;;29.14;39.86;101161.22;5039822;28;20092;-74
2022/08/13 10:04:26;;;;;;;17.05;5.10;;;;;;;29.19;39.98;101164.16;5008509;28;20052;-74
2022/08/13 10:06:58;;;;;;;4.68;3.85;;;;;;;29.30;39.60;101160.88;5030465;28;20415;-73
2022/08/13 10:09:37;;;;;;;5.70;3.78;;;;;;;29.36;39.81;101159.22;5014816;28;20049;-75
2022/08/13 10:12:24;;;;;;;5.38;3.80;;;;;;;29.25;39.78;101168.75;5008631;28;20397;-74
2022/08/13 10:14:51;;;;;;;7.53;4.25;;;;;;;29.09;39.92;101155.53;4980011;28;20140;-74
2022/08/13 10:17:27;;;;;;;9.85;4.03;;;;;;;28.92;39.89;101155.81;5006586;28;20132;-73
2022/08/13 10:20:21;;;;;;;7.30;4.10;;;;;;;28.82;40.41;101159.88;4996072;28;20038;-74
2022/08/13 10:22:50;;;;;;;7.63;4.03;;;;;;;28.69;40.76;101171.50;5010807;28;20140;-74
2022/08/13 10:25:25;;;;;;;13.05;4.70;;;;;;;28.42;43.29;101160.44;4997605;28;20045;-74
2022/08/13 10:28:24;;;;;;;19.25;5.95;;;;;;;28.07;47.29;101164.84;5005906;28;20128;-74
2022/08/13 10:31:07;;;;;;;13.50;5.38;;;;;;;27.67;49.90;101163.50;5002683;28;20153;-73
2022/08/13 10:33:55;;;;;;;8.35;4.40;;;;;;;27.37;49.60;101162.69;5012193;28;20046;-74
2022/08/13 10:36:25;;;;;;;12.38;4.70;;;;;;;27.29;49.83;101158.25;5009934;28;20049;-74
2022/08/13 10:39:02;;;;;;;4.00;3.70;;;;;;;27.50;49.31;101166.41;5006757;28;20081;-74
2022/08/13 10:41:32;;;;;;;6.53;4.03;;;;;;;27.68;48.71;101160.59;5016951;28;20072;-73
2022/08/13 10:43:59;;;;;;;7.35;4.32;;;;;;;27.81;48.38;101168.06;5013833;28;20080;-74
2022/08/13 10:46:28;;;;;;;4.65;3.85;;;;;;;27.73;48.79;101160.06;4997648;28;20053;-74
2022/08/13 10:48:56;;;;;;;11.13;3.80;;;;;;;27.55;48.20;101162.31;5002425;28;20072;-74
2022/08/13 10:51:27;;;;;;;5.97;3.83;;;;;;;27.35;48.52;101165.59;5020402;28;20033;-73
2022/08/13 10:53:59;;;;;;;6.45;3.65;;;;;;;27.29;48.55;101154.66;4997645;28;20054;-74
2022/08/13 10:56:30;;;;;;;7.78;3.42;;;;;;;27.20;48.92;101159.34;4990820;28;20315;-74
2022/08/13 10:59:01;;;;;;;6.05;4.15;;;;;;;27.08;49.59;101158.09;5012188;28;20058;-74
2022/08/13 11:01:30;;;;;;;8.10;4.03;;;;;;;26.98;49.51;101151.09;4980795;28;20057;-74
2022/08/13 11:04:01;;;;;;;7.03;4.05;;;;;;;26.96;49.23;101147.75;5004130;28;20403;-74
2022/08/13 11:06:33;;;;;;;8.10;4.10;;;;;;;27.02;49.01;101151.59;5000920;28;20067;-75
2022/08/13 11:09:05;;;;;;;5.63;3.17;;;;;;;27.01;49.24;101156.13;4984490;28;20141;-74
2022/08/13 11:11:57;;;;;;;5.22;3.50;;;;;;;27.02;49.49;101155.13;5008803;28;20053;-74
2022/08/13 11:14:28;;;;;;;6.75;4.25;;;;;;;26.96;49.14;101146.91;5007076;28;20046;-74
2022/08/13 11:17:07;;;;;;;9.13;3.90;;;;;;;26.89;48.74;101143.28;5001083;28;20066;-75
2022/08/13 11:19:46;;;;;;;6.97;4.00;;;;;;;26.87;48.56;101145.31;5014027;28;20067;-73
2022/08/13 11:22:19;;;;;;;7.03;3.85;;;;;;;26.90;48.99;101142.25;5000521;28;20404;-74
2022/08/13 11:24:59;;;;;;;7.03;4.57;;;;;;;26.90;48.92;101145.78;5023392;28;20326;-74
2022/08/13 11:27:36;;;;;;;8.60;4.20;;;;;;;26.92;48.96;101138.31;5022449;28;20389;-74
2022/08/13 11:30:18;;;;;;;5.03;3.75;;;;;;;27.02;48.43;101143.47;4985848;28;20037;-74
2022/08/13 11:33:00;;;;;;;8.80;4.40;;;;;;;27.02;48.17;101146.19;5023634;28;20409;-75
2022/08/13 11:35:35;;;;;;;9.50;4.72;;;;;;;27.15;48.33;101142.84;5000274;28;20030;-74
2022/08/13 11:38:08;;;;;;;11.82;4.32;;;;;;;27.26;48.18;101137.81;5026108;28;20092;-74
2022/08/13 11:40:37;;;;;;;14.90;6.32;;;;;;;27.23;47.82;101142.75;5000957;28;20046;-74
2022/08/13 11:43:05;;;;;;;12.50;4.43;;;;;;;27.27;47.67;101144.88;5034203;28;20148;-74
2022/08/13 11:45:45;;;;;;;11.30;4.47;;;;;;;27.22;47.48;101139.22;5016694;28;20030;-74
2022/08/13 11:48:16;;;;;;;5.72;4.10;;;;;;;27.09;47.59;101138.19;5030841;28;20168;-74
2022/08/13 11:50:50;;;;;;;4.72;3.92;;;;;;;26.97;47.99;101143.16;4979577;28;20049;-74
2022/08/13 11:53:21;;;;;;;8.98;4.18;;;;;;;26.90;48.53;101142.25;4981909;28;20062;-74
2022/08/13 11:55:51;;;;;;;10.73;5.28;;;;;;;26.89;49.04;101137.88;5031513;28;20054;-74
2022/08/13 11:58:23;;;;;;;5.70;4.03;;;;;;;26.79;49.48;101138.13;5031371;28;20049;-74
2022/08/13 12:01:11;;;;;;;12.80;4.60;;;;;;;26.76;50.32;101139.34;5006574;28;20049;-74
2022/08/13 12:03:39;;;;;;;9.18;4.63;;;;;;;26.79;50.33;101148.09;5016529;28;20503;-74
2022/08/13 12:06:26;;;;;;;19.85;5.88;;;;;;;26.77;50.25;101134.78;5005943;28;20053;-74
2022/08/13 12:08:56;;;;;;;8.20;4.18;;;;;;;26.79;49.88;101131.88;5016743;28;20159;-74
2022/08/13 12:11:43;;;;;;;9.38;3.92;;;;;;;26.88;49.65;101130.78;5030504;28;20070;-74
2022/08/13 12:14:30;;;;;;;5.80;3.63;;;;;;;26.96;48.95;101126.13;5008073;28;20136;-74
2022/08/13 12:16:58;;;;;;;8.25;3.80;;;;;;;26.95;49.04;101126.31;5016214;28;20038;-74
2022/08/13 12:19:27;;;;;;;9.45;5.13;;;;;;;27.04;49.16;101118.97;5008800;28;20069;-74
2022/08/13 12:21:54;;;;;;;5.20;4.10;;;;;;;27.12;49.47;101118.91;5015858;28;20069;-74
2022/08/13 12:24:22;;;;;;;4.72;3.83;;;;;;;27.15;48.99;101116.63;5009417;28;20038;-74
2022/08/13 12:27:03;;;;;;;3.88;3.42;;;;;;;27.26;48.56;101113.47;5015216;28;20508;-74
2022/08/13 12:29:34;;;;;;;6.30;3.38;;;;;;;27.35;48.54;101110.69;4991798;28;20057;-74
2022/08/13 12:32:14;;;;;;;9.13;4.30;;;;;;;27.35;48.21;101108.81;5017557;28;20069;-74